Time;durP1;ratioP1;P1;durP2;ratioP2;P2;SDS_P1;SDS_P2;PMS_P1;PMS_P2;Temp;Humidity;BMP_temperature;BMP_pressure;BME280_temperature;BME280_humidity;BME280_pressure;Samples;Min_cycle;Max_cycle;Signal;HPM_P1;HPM_P2
2021/09/01 04:02:24;;;;;;;178.63;20.87;;;13.20;99.90;;;;;;5086534;23;20478;-64
2021/09/01 04:04:51;;;;;;;132.97;20.40;;;13.10;99.90;;;;;;4995091;28;20457;-64
2021/09/01 04:07:17;;;;;;;143.77;19.73;;;13.00;99.90;;;;;;4995086;28;20450;-64
2021/09/01 04:09:44;;;;;;;64.73;18.50;;;12.90;99.90;;;;;;4998371;28;20461;-64
2021/09/01 04:12:11;;;;;;;47.20;18.03;;;12.80;99.90;;;;;;5002488;28;20485;-64
2021/09/01 04:14:37;;;;;;;30.83;17.17;;;12.90;99.90;;;;;;4996575;28;20453;-65
2021/09/01 04:17:04;;;;;;;86.47;18.10;;;12.90;99.90;;;;;;4995315;28;20504;-64
2021/09/01 04:19:32;;;;;;;67.00;17.87;;;13.00;99.90;;;;;;4994942;28;20460;-64
2021/09/01 04:21:59;;;;;;;54.87;17.43;;;12.90;99.90;;;;;;4994828;28;20491;-64
2021/09/01 04:24:26;;;;;;;28.30;15.20;;;12.90;99.90;;;;;;4994647;28;20453;-64
2021/09/01 04:26:52;;;;;;;49.00;16.33;;;13.00;99.90;;;;;;4994782;28;20457;-65
2021/09/01 04:29:19;;;;;;;49.30;16.70;;;12.90;99.90;;;;;;4994633;28;20457;-64
2021/09/01 04:31:46;;;;;;;68.57;17.87;;;12.90;99.90;;;;;;4994721;28;20488;-63
2021/09/01 04:34:13;;;;;;;49.47;15.27;;;12.90;99.90;;;;;;4994642;28;20818;-63
2021/09/01 04:36:41;;;;;;;17.40;14.70;;;12.90;99.90;;;;;;4995340;28;20460;-64
2021/09/01 04:39:07;;;;;;;17.03;15.43;;;13.00;99.90;;;;;;4994520;28;20462;-64
2021/09/01 04:41:34;;;;;;;47.50;14.00;;;12.90;99.90;;;;;;4994940;28;20999;-64
2021/09/01 04:44:01;;;;;;;25.93;14.40;;;13.00;99.90;;;;;;4994552;28;20464;-64
2021/09/01 04:46:28;;;;;;;55.53;14.73;;;12.90;99.90;;;;;;4994508;28;20813;-64
2021/09/01 04:48:54;;;;;;;93.37;16.20;;;12.80;99.90;;;;;;4994600;28;20457;-64
2021/09/01 04:51:21;;;;;;;37.50;14.80;;;12.70;99.90;;;;;;4994493;28;20508;-63
2021/09/01 04:53:49;;;;;;;69.20;18.10;;;12.70;99.90;;;;;;4994402;28;20461;-64
2021/09/01 04:56:16;;;;;;;52.97;17.73;;;12.70;99.90;;;;;;4994533;28;20453;-64
2021/09/01 04:58:43;;;;;;;144.33;17.80;;;12.70;99.90;;;;;;4994541;28;20465;-63
2021/09/01 05:01:09;;;;;;;89.93;16.13;;;12.70;99.90;;;;;;4994207;28;20486;-64
2021/09/01 05:03:36;;;;;;;42.97;13.20;;;12.70;99.90;;;;;;4995396;28;20453;-64
2021/09/01 05:06:03;;;;;;;138.40;16.50;;;12.70;99.90;;;;;;4998088;28;20503;-64
2021/09/01 05:08:29;;;;;;;71.57;15.47;;;12.70;99.90;;;;;;4997953;28;20481;-63
2021/09/01 05:10:57;;;;;;;61.40;15.10;;;12.70;99.90;;;;;;4997793;28;20482;-63
2021/09/01 05:13:24;;;;;;;129.00;15.40;;;12.70;99.90;;;;;;4998816;28;20489;-63
2021/09/01 05:15:51;;;;;;;67.83;15.23;;;12.70;99.90;;;;;;4997841;28;20453;-63
2021/09/01 05:18:17;;;;;;;80.90;15.47;;;12.60;99.90;;;;;;4997753;28;20972;-65
2021/09/01 05:20:47;;;;;;;107.03;14.47;;;12.60;99.90;;;;;;4997333;28;20473;-63
2021/09/01 05:23:17;;;;;;;108.27;14.63;;;12.60;99.90;;;;;;4997309;28;20933;-63
2021/09/01 05:25:52;;;;;;;70.40;12.80;;;12.60;99.90;;;;;;4998508;28;20926;-63
2021/09/01 05:28:25;;;;;;;125.53;14.90;;;12.60;99.90;;;;;;4997620;28;20442;-63
2021/09/01 05:30:52;;;;;;;92.27;13.90;;;12.60;99.90;;;;;;4997522;28;20478;-64
2021/09/01 05:33:21;;;;;;;74.43;12.57;;;12.60;99.90;;;;;;4997372;28;20988;-64
2021/09/01 05:35:49;;;;;;;156.07;15.17;;;12.70;99.90;;;;;;4996936;28;20457;-63
2021/09/01 05:38:17;;;;;;;82.50;13.50;;;12.70;99.90;;;;;;4997241;28;20462;-64
2021/09/01 05:40:46;;;;;;;95.30;12.63;;;12.70;99.90;;;;;;4997103;28;21000;-64
2021/09/01 05:43:13;;;;;;;125.07;13.23;;;12.80;99.90;;;;;;4997614;28;20453;-65
2021/09/01 05:45:42;;;;;;;71.73;12.40;;;12.90;99.90;;;;;;4997488;28;20457;-65
2021/09/01 05:48:09;;;;;;;152.97;14.17;;;12.80;99.90;;;;;;4997205;28;20817;-65
2021/09/01 05:50:36;;;;;;;145.33;14.40;;;12.70;99.90;;;;;;4997300;28;20485;-65
2021/09/01 05:53:03;;;;;;;75.80;12.70;;;12.60;99.90;;;;;;4997052;28;20473;-65
2021/09/01 05:55:31;;;;;;;112.40;13.10;;;12.70;99.90;;;;;;4997068;28;20457;-65
2021/09/01 05:58:04;;;;;;;114.30;14.50;;;12.70;99.90;;;;;;4997107;28;20454;-65
2021/09/01 06:00:33;;;;;;;56.10;12.30;;;12.70;99.90;;;;;;4996903;28;20486;-65
2021/09/01 06:03:09;;;;;;;129.57;14.03;;;12.80;99.90;;;;;;4997174;28;20461;-65
2021/09/01 06:05:38;;;;;;;30.60;11.53;;;12.90;99.90;;;;;;4997256;28;20433;-65
2021/09/01 06:08:08;;;;;;;54.10;12.53;;;13.00;99.90;;;;;;4998811;28;20454;-64
2021/09/01 06:10:37;;;;;;;45.47;11.60;;;13.10;99.90;;;;;;4999270;28;20474;-64
2021/09/01 06:13:06;;;;;;;31.93;11.47;;;13.20;99.90;;;;;;4998834;28;20486;-64
2021/09/01 06:15:34;;;;;;;112.00;12.83;;;13.20;99.90;;;;;;4998090;28;20458;-65
2021/09/01 06:18:03;;;;;;;50.63;11.97;;;13.10;99.90;;;;;;4996727;28;20630;-65
2021/09/01 06:20:30;;;;;;;34.37;14.33;;;13.10;99.90;;;;;;4996768;28;20473;-66
2021/09/01 06:22:58;;;;;;;120.13;13.43;;;13.20;99.90;;;;;;4997390;28;20956;-65
2021/09/01 06:25:25;;;;;;;48.67;12.50;;;13.30;99.90;;;;;;4996505;28;20445;-65
2021/09/01 06:27:53;;;;;;;77.90;13.00;;;13.40;99.90;;;;;;4996323;28;20453;-65
2021/09/01 06:30:20;;;;;;;41.93;12.50;;;13.40;99.90;;;;;;4996455;28;20466;-66
2021/09/01 06:32:47;;;;;;;121.63;15.13;;;13.50;99.90;;;;;;4996119;28;20484;-65
2021/09/01 06:35:15;;;;;;;94.13;15.37;;;13.50;99.90;;;;;;4996312;28;20458;-65
2021/09/01 06:37:44;;;;;;;71.87;17.00;;;13.60;99.90;;;;;;4997188;28;20453;-65
2021/09/01 06:40:13;;;;;;;56.43;20.10;;;13.70;99.90;;;;;;4997030;28;20798;-66
2021/09/01 06:42:40;;;;;;;92.00;19.90;;;13.80;99.90;;;;;;4996609;28;20454;-65
2021/09/01 06:45:08;;;;;;;76.47;19.97;;;13.90;99.90;;;;;;4996209;28;20460;-65
2021/09/01 06:47:40;;;;;;;79.20;21.60;;;14.10;99.90;;;;;;4995924;28;20460;-63
2021/09/01 06:50:08;;;;;;;59.57;20.27;;;14.20;99.90;;;;;;4996186;28;20482;-64
2021/09/01 06:52:36;;;;;;;56.53;20.17;;;14.30;99.90;;;;;;4995750;28;20478;-63
2021/09/01 06:55:03;;;;;;;66.07;21.27;;;14.30;99.90;;;;;;4995947;28;20464;-64
2021/09/01 06:57:29;;;;;;;32.10;18.83;;;14.50;99.90;;;;;;4995920;28;21052;-64
2021/09/01 06:59:56;;;;;;;32.70;19.20;;;14.60;99.90;;;;;;4996571;28;20465;-64
2021/09/01 07:02:23;;;;;;;29.40;18.40;;;14.90;99.90;;;;;;4995406;28;21008;-64
2021/09/01 07:04:49;;;;;;;84.03;18.50;;;14.90;99.90;;;;;;4996155;28;20461;-64
2021/09/01 07:07:16;;;;;;;24.33;17.13;;;15.00;99.90;;;;;;4996409;28;20453;-64
2021/09/01 07:09:44;;;;;;;39.73;17.80;;;15.10;99.90;;;;;;4996069;28;20465;-64
2021/09/01 07:12:11;;;;;;;86.40;20.00;;;15.10;99.90;;;;;;4996226;28;20473;-66
2021/09/01 07:14:38;;;;;;;81.10;20.13;;;14.90;99.90;;;;;;4996531;28;20461;-64
2021/09/01 07:17:04;;;;;;;162.10;21.47;;;15.00;99.90;;;;;;4995768;28;20468;-63
2021/09/01 07:19:31;;;;;;;57.77;21.03;;;15.10;99.90;;;;;;4995996;28;20461;-63
2021/09/01 07:21:58;;;;;;;93.07;21.93;;;15.00;99.90;;;;;;4995838;28;20477;-65
2021/09/01 07:24:24;;;;;;;84.67;21.67;;;15.00;99.90;;;;;;4995672;28;20457;-64
2021/09/01 07:26:53;;;;;;;133.63;23.30;;;15.10;99.90;;;;;;4994734;28;20822;-65
2021/09/01 07:29:19;;;;;;;67.77;22.77;;;15.10;99.90;;;;;;4994881;28;20462;-64
2021/09/01 07:31:46;;;;;;;28.33;22.77;;;15.30;99.90;;;;;;4994982;28;20996;-63
2021/09/01 07:34:13;;;;;;;157.53;24.70;;;15.40;99.90;;;;;;4994720;28;20956;-65
2021/09/01 07:36:39;;;;;;;66.57;21.40;;;15.50;99.90;;;;;;4995250;28;20457;-65
2021/09/01 07:39:06;;;;;;;148.93;24.77;;;15.40;99.90;;;;;;4995283;28;20465;-65
2021/09/01 07:41:36;;;;;;;59.70;23.20;;;15.20;99.90;;;;;;4995403;28;20473;-65
2021/09/01 07:44:05;;;;;;;29.47;22.50;;;15.10;99.90;;;;;;4995399;28;20434;-65
2021/09/01 07:46:31;;;;;;;44.70;21.90;;;15.20;99.90;;;;;;4995761;28;20478;-65
2021/09/01 07:49:00;;;;;;;29.03;22.33;;;15.40;99.90;;;;;;4995284;28;20461;-65
2021/09/01 07:51:27;;;;;;;42.83;22.03;;;15.40;99.90;;;;;;4995097;28;20477;-65
2021/09/01 07:53:54;;;;;;;33.23;22.47;;;15.70;99.90;;;;;;4994927;28;20481;-64
2021/09/01 07:56:21;;;;;;;59.87;22.10;;;16.00;99.90;;;;;;4994986;28;20457;-64
2021/09/01 07:58:47;;;;;;;39.40;22.77;;;16.10;99.90;;;;;;4994805;28;20453;-63
2021/09/01 08:01:16;;;;;;;62.27;21.13;;;16.30;99.90;;;;;;4994742;28;20860;-64
2021/09/01 08:03:42;;;;;;;25.50;22.90;;;16.50;99.90;;;;;;4995196;28;20454;-64
2021/09/01 08:06:09;;;;;;;27.97;20.80;;;16.60;99.90;;;;;;4994862;28;20458;-63
2021/09/01 08:08:36;;;;;;;52.07;22.60;;;16.70;99.90;;;;;;4994872;28;20978;-64
2021/09/01 08:11:03;;;;;;;26.73;21.83;;;16.90;99.90;;;;;;4994950;28;20485;-63
2021/09/01 08:13:30;;;;;;;100.37;23.57;;;17.00;99.90;;;;;;4994707;28;20481;-63
2021/09/01 08:15:56;;;;;;;24.93;22.50;;;17.00;99.90;;;;;;4995162;28;20457;-63
2021/09/01 08:18:24;;;;;;;28.60;23.47;;;16.70;99.90;;;;;;4994468;28;20453;-65
2021/09/01 08:20:51;;;;;;;37.00;23.57;;;16.80;99.90;;;;;;4994527;28;20484;-63
2021/09/01 08:23:18;;;;;;;28.33;23.57;;;17.00;99.90;;;;;;4995539;28;20446;-63
2021/09/01 08:25:45;;;;;;;26.37;23.00;;;17.10;99.90;;;;;;4995264;28;20461;-65
2021/09/01 08:28:12;;;;;;;24.90;22.23;;;17.40;99.90;;;;;;5005973;28;20458;-65
2021/09/01 08:30:39;;;;;;;25.00;22.43;;;17.50;99.90;;;;;;5005163;28;20482;-66
2021/09/01 08:33:06;;;;;;;27.50;20.30;;;17.70;99.90;;;;;;4995172;28;20474;-65
2021/09/01 08:35:34;;;;;;;25.13;22.53;;;18.00;99.90;;;;;;4994808;28;20453;-64
2021/09/01 08:38:00;;;;;;;24.33;21.93;;;17.90;99.90;;;;;;4995000;28;20465;-64
2021/09/01 08:40:27;;;;;;;23.97;21.47;;;18.20;99.90;;;;;;4998405;28;20460;-64
2021/09/01 08:42:55;;;;;;;23.50;21.30;;;18.20;99.90;;;;;;4998551;28;20461;-63
2021/09/01 08:45:23;;;;;;;22.13;20.03;;;18.40;99.90;;;;;;4998797;28;20461;-63
2021/09/01 08:47:51;;;;;;;22.20;20.10;;;19.00;99.90;;;;;;4999670;28;20457;-63
2021/09/01 08:50:18;;;;;;;22.37;20.27;;;19.70;99.90;;;;;;4998711;28;20458;-64
2021/09/01 08:52:46;;;;;;;22.40;20.30;;;20.00;99.90;;;;;;4998575;28;20533;-64
2021/09/01 08:55:14;;;;;;;24.77;22.33;;;19.90;99.90;;;;;;4998760;28;20461;-64
2021/09/01 08:57:41;;;;;;;23.40;21.10;;;19.90;99.90;;;;;;4997737;28;20957;-65
2021/09/01 09:00:09;;;;;;;20.70;18.80;;;19.80;99.90;;;;;;4998120;28;20464;-65
2021/09/01 09:02:36;;;;;;;21.23;19.13;;;20.30;99.90;;;;;;4998024;28;20454;-65
2021/09/01 09:05:05;;;;;;;23.90;21.70;;;20.50;99.90;;;;;;4998259;28;20566;-62
2021/09/01 09:07:43;;;;;;;22.23;20.20;;;20.30;99.90;;;;;;4997858;28;20449;-63
2021/09/01 09:10:26;;;;;;;21.33;19.43;;;20.50;99.90;;;;;;4998197;28;20461;-63
2021/09/01 09:12:57;;;;;;;18.60;16.80;;;21.30;99.90;;;;;;4997845;28;20441;-63
2021/09/01 09:15:24;;;;;;;17.43;15.83;;;22.70;99.90;;;;;;4997612;28;20951;-63
2021/09/01 09:17:51;;;;;;;16.10;14.80;;;23.70;99.90;;;;;;4997357;28;20937;-63
2021/09/01 09:20:25;;;;;;;15.37;13.87;;;24.70;99.90;;;;;;4997755;28;20453;-63
2021/09/01 09:22:52;;;;;;;14.30;13.10;;;25.60;99.90;;;;;;4997803;28;20441;-64
2021/09/01 09:25:21;;;;;;;17.20;15.73;;;26.80;99.90;;;;;;4997184;28;20462;-63
2021/09/01 09:27:52;;;;;;;15.17;13.87;;;27.30;99.90;;;;;;4997580;28;21004;-64
2021/09/01 09:30:34;;;;;;;14.20;13.00;;;28.20;99.90;;;;;;4998002;28;20446;-63
2021/09/01 09:33:03;;;;;;;14.63;13.53;;;28.60;99.90;;;;;;4997091;28;20864;-65
2021/09/01 09:35:51;;;;;;;15.73;14.53;;;29.40;99.90;;;;;;4996722;28;20453;-64
2021/09/01 09:38:26;;;;;;;13.50;12.50;;;29.10;99.90;;;;;;4997243;28;20935;-65
2021/09/01 09:40:53;;;;;;;12.30;11.40;;;30.00;99.90;;;;;;4997570;28;20477;-65
2021/09/01 09:43:24;;;;;;;11.50;10.50;;;30.90;95.40;;;;;;4997441;28;20478;-65
2021/09/01 09:46:00;;;;;;;13.00;12.00;;;30.80;95.20;;;;;;4997402;28;20442;-65
2021/09/01 09:48:28;;;;;;;11.20;10.37;;;30.80;93.90;;;;;;4998223;28;20529;-64
2021/09/01 09:50:55;;;;;;;11.27;10.37;;;31.10;91.40;;;;;;4996572;28;20476;-63
2021/09/01 09:53:33;;;;;;;10.93;10.13;;;31.70;92.20;;;;;;4997310;28;20449;-65
2021/09/01 09:56:05;;;;;;;9.13;8.53;;;31.50;89.60;;;;;;4997119;28;20457;-64
2021/09/01 09:58:35;;;;;;;9.90;9.20;;;31.60;88.30;;;;;;4997936;28;20944;-64
2021/09/01 10:01:04;;;;;;;8.90;8.30;;;30.40;91.10;;;;;;4997332;28;20988;-64
2021/09/01 10:03:32;;;;;;;10.50;9.70;;;30.90;91.10;;;;;;4997144;28;20482;-65
2021/09/01 10:06:01;;;;;;;9.37;8.77;;;31.40;88.00;;;;;;4997514;28;20454;-65
2021/09/01 10:08:29;;;;;;;8.10;7.57;;;31.20;91.00;;;;;;4996870;28;20458;-64
2021/09/01 10:10:57;;;;;;;8.40;7.60;;;31.50;86.90;;;;;;4996813;28;20995;-65
2021/09/01 10:13:25;;;;;;;8.37;7.77;;;32.20;85.60;;;;;;4996812;28;20489;-65
2021/09/01 10:15:58;;;;;;;9.57;8.97;;;32.90;81.50;;;;;;4996889;28;20508;-65
2021/09/01 10:18:26;;;;;;;9.67;8.77;;;32.70;77.30;;;;;;4997412;28;20438;-65
2021/09/01 10:20:53;;;;;;;8.47;7.83;;;32.90;82.40;;;;;;4996807;28;20480;-65
2021/09/01 10:23:36;;;;;;;9.20;8.40;;;32.80;79.30;;;;;;4996820;28;20473;-65
2021/09/01 10:26:21;;;;;;;7.70;7.10;;;32.60;76.70;;;;;;4997326;28;20441;-65
2021/09/01 10:28:48;;;;;;;6.23;5.73;;;32.30;78.80;;;;;;4996720;28;20442;-65
2021/09/01 10:31:32;;;;;;;6.60;5.97;;;32.80;78.70;;;;;;4997557;28;20478;-65
2021/09/01 10:34:04;;;;;;;7.87;7.27;;;33.30;73.00;;;;;;4997277;28;20448;-65
2021/09/01 10:36:57;;;;;;;6.80;6.30;;;33.30;74.50;;;;;;4996961;28;20454;-65
2021/09/01 10:39:45;;;;;;;6.50;6.00;;;33.40;69.90;;;;;;4996583;28;20800;-65
2021/09/01 10:42:36;;;;;;;5.37;4.90;;;33.50;72.20;;;;;;4996605;28;20506;-65
2021/09/01 10:45:11;;;;;;;5.50;5.10;;;33.60;63.90;;;;;;4996328;28;20477;-65
2021/09/01 10:48:05;;;;;;;5.67;5.30;;;33.50;58.40;;;;;;4996844;28;20444;-65
2021/09/01 10:50:34;;;;;;;6.20;5.70;;;34.10;59.70;;;;;;4996633;28;20832;-65
2021/09/01 10:53:04;;;;;;;7.30;6.70;;;34.40;62.30;;;;;;4996503;28;21003;-65
2021/09/01 10:55:32;;;;;;;6.23;5.63;;;33.60;60.30;;;;;;4996089;28;20454;-65
2021/09/01 10:58:16;;;;;;;6.27;5.87;;;33.20;63.70;;;;;;4996649;28;20461;-65
2021/09/01 11:00:43;;;;;;;6.70;6.20;;;32.80;64.10;;;;;;5007423;28;21015;-66
2021/09/01 11:03:11;;;;;;;8.03;7.40;;;32.30;64.70;;;;;;4997371;28;20945;-65
2021/09/01 11:05:38;;;;;;;7.07;6.47;;;32.00;66.40;;;;;;4995835;28;20458;-65
2021/09/01 11:08:05;;;;;;;7.60;7.10;;;31.80;67.40;;;;;;4995914;28;20465;-65
2021/09/01 11:10:32;;;;;;;7.00;6.50;;;31.10;69.40;;;;;;4995924;28;20536;-65
2021/09/01 11:13:00;;;;;;;8.30;7.70;;;30.40;71.00;;;;;;4996248;28;20457;-65
2021/09/01 11:15:28;;;;;;;6.67;6.27;;;29.30;74.70;;;;;;4997203;28;20457;-65
2021/09/01 11:18:05;;;;;;;5.90;5.50;;;28.80;78.30;;;;;;4996853;28;20457;-65
2021/09/01 11:20:33;;;;;;;5.63;5.23;;;28.90;77.30;;;;;;4995981;28;20504;-65
2021/09/01 11:23:01;;;;;;;6.93;6.43;;;29.10;73.60;;;;;;4996377;28;20458;-65
2021/09/01 11:25:29;;;;;;;6.53;5.93;;;29.00;75.70;;;;;;4995612;28;20478;-65
2021/09/01 11:27:57;;;;;;;6.43;6.03;;;29.00;78.00;;;;;;4995488;28;20465;-65
2021/09/01 11:30:31;;;;;;;6.97;6.53;;;29.10;76.50;;;;;;4995792;28;20454;-65
2021/09/01 11:32:59;;;;;;;5.83;5.43;;;29.00;77.30;;;;;;4995518;28;20438;-64
2021/09/01 11:35:29;;;;;;;7.30;6.60;;;28.70;78.80;;;;;;4995271;28;20453;-65
2021/09/01 11:37:58;;;;;;;6.80;6.27;;;27.70;80.00;;;;;;4995309;28;20504;-64
2021/09/01 11:40:32;;;;;;;6.60;6.00;;;27.30;82.50;;;;;;4995383;28;20460;-64
2021/09/01 11:42:59;;;;;;;6.47;6.07;;;27.10;81.60;;;;;;4995071;28;20477;-64
2021/09/01 11:45:26;;;;;;;6.10;5.60;;;27.10;81.30;;;;;;4995095;28;20481;-64
2021/09/01 11:47:59;;;;;;;6.17;5.67;;;27.20;82.20;;;;;;4995231;28;20497;-64
2021/09/01 11:50:26;;;;;;;6.17;5.67;;;27.30;79.10;;;;;;4995179;28;20508;-65
2021/09/01 11:52:54;;;;;;;6.67;6.17;;;27.40;86.00;;;;;;4995240;28;20464;-65
2021/09/01 11:55:25;;;;;;;5.50;5.00;;;27.20;84.10;;;;;;4995110;28;20453;-64
2021/09/01 11:57:51;;;;;;;5.93;5.33;;;27.10;82.00;;;;;;4995361;28;20434;-65
2021/09/01 12:00:19;;;;;;;6.33;5.73;;;27.20;82.20;;;;;;4994759;28;20480;-65
2021/09/01 12:02:50;;;;;;;14.67;13.77;;;27.20;81.90;;;;;;4995178;28;20446;-64
2021/09/01 12:05:29;;;;;;;8.87;8.23;;;27.30;81.60;;;;;;4995098;28;20466;-65
2021/09/01 12:07:56;;;;;;;8.30;7.80;;;27.40;83.60;;;;;;4995308;28;20461;-65
2021/09/01 12:10:30;;;;;;;5.03;4.73;;;27.50;80.40;;;;;;4994899;28;20460;-65
2021/09/01 12:13:01;;;;;;;7.03;6.43;;;27.20;76.60;;;;;;4995205;28;20475;-64
2021/09/01 12:15:28;;;;;;;12.40;11.40;;;27.40;76.00;;;;;;4998646;28;20470;-65
2021/09/01 12:18:03;;;;;;;5.20;4.80;;;27.60;78.20;;;;;;4998963;28;20453;-65
2021/09/01 12:20:33;;;;;;;10.27;9.37;;;27.60;76.70;;;;;;4999060;28;20457;-65
2021/09/01 12:23:00;;;;;;;5.83;5.33;;;27.50;80.00;;;;;;5000182;28;20453;-65
2021/09/01 12:25:28;;;;;;;6.33;5.60;;;27.20;82.30;;;;;;4998805;28;20842;-65
2021/09/01 12:28:04;;;;;;;6.07;5.57;;;27.00;82.50;;;;;;4998434;28;20457;-65
2021/09/01 12:30:32;;;;;;;5.53;5.13;;;26.60;86.80;;;;;;4998477;28;20453;-65
2021/09/01 12:33:01;;;;;;;5.70;5.30;;;26.20;82.70;;;;;;5001036;28;20476;-65
2021/09/01 12:35:31;;;;;;;5.50;5.10;;;25.90;83.00;;;;;;5006269;28;20445;-65
2021/09/01 12:38:00;;;;;;;6.53;6.00;;;25.50;82.50;;;;;;5010953;28;20450;-65
2021/09/01 12:40:30;;;;;;;6.13;5.60;;;24.70;87.50;;;;;;5000489;28;20454;-64
2021/09/01 12:42:59;;;;;;;6.63;6.10;;;24.50;86.90;;;;;;4998859;28;20464;-65
2021/09/01 12:45:26;;;;;;;5.63;5.13;;;24.80;89.00;;;;;;4998655;28;20474;-65
2021/09/01 12:47:55;;;;;;;5.70;5.30;;;25.10;84.60;;;;;;4998455;28;20937;-65
2021/09/01 12:50:27;;;;;;;5.50;5.20;;;25.40;87.30;;;;;;4998232;28;20454;-65
2021/09/01 12:52:54;;;;;;;5.53;5.13;;;26.00;88.20;;;;;;4998145;28;20448;-65
2021/09/01 12:55:26;;;;;;;5.60;5.20;;;26.10;84.30;;;;;;4998253;28;20453;-65
2021/09/01 12:57:55;;;;;;;5.60;5.07;;;26.40;86.50;;;;;;4998647;28;20441;-64
2021/09/01 13:00:22;;;;;;;6.33;5.47;;;26.60;87.10;;;;;;4997884;28;20940;-64
2021/09/01 13:02:48;;;;;;;5.70;5.20;;;26.50;85.70;;;;;;4998300;28;20886;-64
2021/09/01 13:05:15;;;;;;;5.40;4.93;;;26.20;83.10;;;;;;4998043;28;20481;-64
2021/09/01 13:07:42;;;;;;;6.03;5.53;;;25.70;84.40;;;;;;4998450;28;20457;-65
2021/09/01 13:10:09;;;;;;;5.47;5.07;;;25.60;85.00;;;;;;4998275;28;20857;-65
2021/09/01 13:12:36;;;;;;;5.23;4.90;;;25.50;86.00;;;;;;4998070;28;20481;-65
2021/09/01 13:15:05;;;;;;;7.80;5.00;;;25.50;85.00;;;;;;4998057;28;20449;-65
2021/09/01 13:17:32;;;;;;;5.43;4.93;;;25.60;85.50;;;;;;4998058;28;20457;-65
2021/09/01 13:19:59;;;;;;;4.73;4.43;;;26.00;86.90;;;;;;4997854;28;20457;-65
2021/09/01 13:22:25;;;;;;;4.40;4.20;;;26.20;82.70;;;;;;4997616;28;20477;-65
2021/09/01 13:24:52;;;;;;;5.00;4.60;;;26.50;80.70;;;;;;4997142;28;20486;-65
2021/09/01 13:27:19;;;;;;;5.60;5.20;;;26.60;82.10;;;;;;4997706;28;20462;-65
2021/09/01 13:29:46;;;;;;;4.80;4.40;;;26.80;79.50;;;;;;4997261;28;20458;-64
2021/09/01 13:32:14;;;;;;;5.93;4.57;;;26.90;78.00;;;;;;4997580;28;20485;-65
2021/09/01 13:34:40;;;;;;;4.77;4.43;;;26.80;78.30;;;;;;4997652;28;20449;-65
2021/09/01 13:37:07;;;;;;;5.27;4.87;;;26.90;78.10;;;;;;4997611;28;20821;-65
2021/09/01 13:39:34;;;;;;;5.37;4.97;;;27.10;82.50;;;;;;4997187;28;20454;-65
2021/09/01 13:42:01;;;;;;;4.80;4.50;;;27.10;80.20;;;;;;4998481;28;20473;-65
2021/09/01 13:44:27;;;;;;;7.53;4.63;;;26.90;77.80;;;;;;4997250;28;20841;-64
2021/09/01 13:46:54;;;;;;;6.10;4.60;;;26.70;80.20;;;;;;4997214;28;20460;-65
2021/09/01 13:49:22;;;;;;;5.37;4.97;;;26.50;82.00;;;;;;4997181;28;20454;-64
2021/09/01 13:51:49;;;;;;;4.27;3.97;;;26.80;84.10;;;;;;4996989;28;20473;-65
2021/09/01 13:54:15;;;;;;;5.33;5.00;;;27.10;82.80;;;;;;4997113;28;20461;-65
2021/09/01 13:56:42;;;;;;;5.27;4.80;;;27.10;81.20;;;;;;4997069;28;20469;-65
2021/09/01 13:59:10;;;;;;;5.00;4.60;;;26.70;79.50;;;;;;4997201;28;20458;-64
2021/09/01 14:01:37;;;;;;;4.70;4.30;;;26.30;79.30;;;;;;4996635;28;21014;-65
2021/09/01 14:04:04;;;;;;;7.40;4.80;;;26.20;78.30;;;;;;4996672;28;20458;-65
2021/09/01 14:06:33;;;;;;;4.90;4.40;;;26.10;80.80;;;;;;4996383;28;20458;-64
2021/09/01 14:09:00;;;;;;;5.97;4.53;;;25.90;80.20;;;;;;4996842;28;20457;-64
2021/09/01 14:11:27;;;;;;;5.03;4.73;;;25.70;80.50;;;;;;5003036;28;20476;-65
2021/09/01 14:13:54;;;;;;;4.60;4.30;;;25.70;83.40;;;;;;5004765;28;20828;-64
2021/09/01 14:16:21;;;;;;;5.13;4.73;;;25.80;85.80;;;;;;4997483;28;20958;-65
2021/09/01 14:18:49;;;;;;;5.17;4.67;;;26.10;82.40;;;;;;4996556;28;20899;-65
2021/09/01 14:21:16;;;;;;;5.13;4.83;;;26.30;78.70;;;;;;4996017;28;21000;-65
2021/09/01 14:23:44;;;;;;;4.67;4.33;;;26.40;79.60;;;;;;4996915;28;20527;-65
2021/09/01 14:26:12;;;;;;;5.50;5.10;;;26.10;79.60;;;;;;4996864;28;20501;-65
2021/09/01 14:28:38;;;;;;;4.80;4.50;;;25.60;83.10;;;;;;4996543;28;20458;-65
2021/09/01 14:31:05;;;;;;;6.33;4.90;;;25.40;83.30;;;;;;4996569;28;20484;-65
2021/09/01 14:33:32;;;;;;;5.17;4.77;;;25.10;84.10;;;;;;4996551;28;20457;-64
2021/09/01 14:35:59;;;;;;;5.50;5.10;;;24.90;82.70;;;;;;4995517;28;20504;-65
2021/09/01 14:38:26;;;;;;;5.40;4.50;;;24.90;82.50;;;;;;4996250;28;20457;-65
2021/09/01 14:40:54;;;;;;;4.40;4.10;;;25.00;81.60;;;;;;4996352;28;20985;-65
2021/09/01 14:43:21;;;;;;;5.07;4.03;;;25.00;80.00;;;;;;4996472;28;20469;-65
2021/09/01 14:45:48;;;;;;;6.77;5.30;;;25.20;80.00;;;;;;4996126;28;20485;-64
2021/09/01 14:48:15;;;;;;;5.07;4.70;;;25.30;75.80;;;;;;4995996;28;20458;-65
2021/09/01 14:50:42;;;;;;;5.10;4.77;;;25.70;77.60;;;;;;4995758;28;20981;-65
2021/09/01 14:53:10;;;;;;;4.40;4.00;;;25.60;77.70;;;;;;4996360;28;20458;-65
2021/09/01 14:55:37;;;;;;;5.47;4.97;;;25.60;82.70;;;;;;4996880;28;20449;-65
2021/09/01 14:58:06;;;;;;;5.47;4.77;;;25.40;80.50;;;;;;4996099;28;20491;-64
2021/09/01 15:00:33;;;;;;;6.03;4.57;;;25.40;81.40;;;;;;4995635;28;20472;-65
2021/09/01 15:02:59;;;;;;;5.30;4.90;;;25.30;80.20;;;;;;4995829;28;20438;-64
2021/09/01 15:05:26;;;;;;;5.63;5.13;;;25.10;79.60;;;;;;4995576;28;20484;-64
2021/09/01 15:07:53;;;;;;;5.27;4.77;;;24.90;84.10;;;;;;4995517;28;20462;-64
2021/09/01 15:10:21;;;;;;;5.07;4.67;;;24.50;83.00;;;;;;4995552;28;20462;-65
2021/09/01 15:12:48;;;;;;;5.50;5.10;;;24.40;84.60;;;;;;4995281;28;20454;-65
2021/09/01 15:15:16;;;;;;;6.07;5.60;;;24.50;84.80;;;;;;4996239;28;20442;-65
2021/09/01 15:17:43;;;;;;;4.50;4.20;;;24.30;82.40;;;;;;4995505;28;20457;-65
2021/09/01 15:20:12;;;;;;;6.63;4.70;;;24.40;82.70;;;;;;4995512;28;20453;-64
2021/09/01 15:22:39;;;;;;;5.27;4.90;;;24.60;83.70;;;;;;4995630;28;20454;-64
2021/09/01 15:25:07;;;;;;;5.13;4.73;;;24.70;84.30;;;;;;4995640;28;20532;-64
2021/09/01 15:27:33;;;;;;;5.17;4.87;;;25.00;84.10;;;;;;4995530;28;20458;-64
2021/09/01 15:30:00;;;;;;;4.47;4.13;;;25.10;82.60;;;;;;4996002;28;20461;-64
2021/09/01 15:32:28;;;;;;;4.83;4.53;;;25.20;81.40;;;;;;4995373;28;20477;-65
2021/09/01 15:34:55;;;;;;;5.57;5.10;;;25.30;81.90;;;;;;4995381;28;20829;-64
2021/09/01 15:37:21;;;;;;;4.90;4.40;;;24.90;81.50;;;;;;4995129;28;20465;-65
2021/09/01 15:39:49;;;;;;;5.07;4.67;;;24.90;83.40;;;;;;4995185;28;20454;-64
2021/09/01 15:42:18;;;;;;;4.57;4.27;;;24.80;84.50;;;;;;4994995;28;20481;-65
2021/09/01 15:44:48;;;;;;;4.73;4.40;;;24.90;83.30;;;;;;4995110;28;20454;-64
2021/09/01 15:47:17;;;;;;;4.67;4.37;;;24.70;84.00;;;;;;4995702;28;20445;-65
2021/09/01 15:49:47;;;;;;;6.93;4.90;;;24.20;84.00;;;;;;4995047;28;20565;-65
2021/09/01 15:52:15;;;;;;;5.23;4.90;;;24.00;84.80;;;;;;4995029;28;20501;-65
2021/09/01 15:54:42;;;;;;;5.03;4.63;;;23.70;85.20;;;;;;4995191;28;20454;-64
2021/09/01 15:57:11;;;;;;;4.83;4.50;;;23.50;85.80;;;;;;4994914;28;21014;-64
2021/09/01 15:59:40;;;;;;;5.60;5.20;;;23.30;88.20;;;;;;4995025;28;20460;-64
2021/09/01 16:02:08;;;;;;;5.10;4.70;;;23.40;87.20;;;;;;4994573;28;20536;-64
2021/09/01 16:04:36;;;;;;;5.53;5.20;;;23.50;88.50;;;;;;4994890;28;20945;-64
2021/09/01 16:07:04;;;;;;;4.20;3.90;;;23.40;87.00;;;;;;4994928;28;20473;-64
2021/09/01 16:09:31;;;;;;;5.57;5.07;;;23.30;86.20;;;;;;4994727;28;20464;-65
2021/09/01 16:12:00;;;;;;;5.23;4.63;;;23.30;86.80;;;;;;4994391;28;20470;-65
2021/09/01 16:14:36;;;;;;;5.83;4.90;;;23.20;85.90;;;;;;4994746;28;20485;-64
2021/09/01 16:17:04;;;;;;;5.13;4.73;;;23.20;86.50;;;;;;4994504;28;20445;-65
2021/09/01 16:19:47;;;;;;;6.00;5.40;;;23.20;87.80;;;;;;4994619;28;20504;-65
2021/09/01 16:22:18;;;;;;;4.40;4.10;;;23.10;90.30;;;;;;4994737;28;20481;-65
2021/09/01 16:24:46;;;;;;;4.80;4.50;;;23.10;90.00;;;;;;4995274;28;20500;-65
2021/09/01 16:27:13;;;;;;;6.00;5.50;;;23.10;88.90;;;;;;4994748;28;20845;-65
2021/09/01 16:29:41;;;;;;;5.20;4.80;;;23.10;89.40;;;;;;4994468;28;20945;-65
2021/09/01 16:32:08;;;;;;;6.70;5.97;;;23.10;89.50;;;;;;4994362;28;20473;-65
2021/09/01 16:34:35;;;;;;;6.50;6.00;;;23.10;89.20;;;;;;4994701;28;20457;-65
2021/09/01 16:37:03;;;;;;;6.93;6.43;;;23.00;90.60;;;;;;4994936;28;20446;-64
2021/09/01 16:39:32;;;;;;;7.63;7.07;;;23.00;88.70;;;;;;4994479;28;20454;-65
2021/09/01 16:42:00;;;;;;;17.00;15.60;;;22.90;89.50;;;;;;4994288;28;20485;-65
2021/09/01 16:44:27;;;;;;;8.70;7.90;;;22.90;90.00;;;;;;4994481;28;20458;-64